createdAt,value
2022-10-31T00:00:09.722Z,40.87
2022-10-31T00:02:58.600Z,41.07
2022-10-31T00:05:49.793Z,41.65
2022-10-31T00:08:38.195Z,41.69
2022-10-31T00:11:28.326Z,42.05
2022-10-31T00:14:16.848Z,42.06
2022-10-31T00:17:05.400Z,42.27
2022-10-31T00:19:53.916Z,42.11
2022-10-31T00:22:42.386Z,42.11
2022-10-31T00:25:32.191Z,42.51
2022-10-31T00:28:22.051Z,42.13
2022-10-31T00:31:12.568Z,42.17
2022-10-31T00:34:01.090Z,42.32
2022-10-31T00:36:49.588Z,42.16
2022-10-31T00:39:38.056Z,42.69
2022-10-31T00:42:26.569Z,42.21
2022-10-31T00:45:16.602Z,42.38
2022-10-31T00:48:05.619Z,42.25
2022-10-31T00:50:54.092Z,42.09
2022-10-31T00:53:42.559Z,42.41
2022-10-31T00:56:30.994Z,42.45
2022-10-31T00:59:19.557Z,42.30
2022-10-31T01:02:09.505Z,42.37
2022-10-31T01:04:58.079Z,42.28
2022-10-31T01:07:46.602Z,42.35
2022-10-31T01:10:35.067Z,42.27
2022-10-31T01:13:23.523Z,42.31
2022-10-31T01:16:14.012Z,42.36
2022-10-31T01:19:03.920Z,42.37
2022-10-31T01:21:52.345Z,42.30
2022-10-31T01:24:40.876Z,42.19
2022-10-31T01:27:29.303Z,42.22
2022-10-31T01:30:17.897Z,42.23
2022-10-31T01:33:06.904Z,42.14
2022-10-31T01:35:56.827Z,42.00
2022-10-31T01:39:04.561Z,42.05
2022-10-31T01:41:54.458Z,41.97
2022-10-31T01:45:01.553Z,42.16
2022-10-31T01:47:50.888Z,42.13
2022-10-31T01:50:40.642Z,42.04
2022-10-31T01:53:30.529Z,41.90
2022-10-31T01:56:21.678Z,42.08
2022-10-31T01:59:11.933Z,42.22
2022-10-31T02:02:00.616Z,42.10
2022-10-31T02:04:51.028Z,41.85
2022-10-31T02:07:42.598Z,41.96
2022-10-31T02:10:33.426Z,41.80
2022-10-31T02:13:22.732Z,42.16
2022-10-31T02:16:12.461Z,41.87
2022-10-31T02:19:00.996Z,41.99
2022-10-31T02:21:53.495Z,41.90
2022-10-31T02:24:58.821Z,42.01
2022-10-31T02:28:12.337Z,42.12
2022-10-31T02:31:16.317Z,42.01
2022-10-31T02:34:09.499Z,41.86
2022-10-31T02:37:01.117Z,41.86
2022-10-31T02:39:56.920Z,41.97
2022-10-31T02:42:51.022Z,41.89
2022-10-31T02:45:46.668Z,41.74
2022-10-31T02:48:38.168Z,41.87
2022-10-31T02:51:28.151Z,41.62
2022-10-31T02:54:24.860Z,41.71
2022-10-31T02:57:13.403Z,41.71
2022-10-31T03:00:05.401Z,41.81
2022-10-31T03:03:00.279Z,41.73
2022-10-31T03:05:56.355Z,41.70
2022-10-31T03:08:50.160Z,41.59
2022-10-31T03:11:45.777Z,41.61
2022-10-31T03:14:41.363Z,41.77
2022-10-31T03:17:37.255Z,41.61
2022-10-31T03:20:30.217Z,41.42
2022-10-31T03:23:21.856Z,41.58
2022-10-31T03:26:12.236Z,41.79
2022-10-31T03:29:06.670Z,41.49
2022-10-31T03:31:58.372Z,41.79
2022-10-31T03:34:48.384Z,41.60
2022-10-31T03:37:38.224Z,41.52
2022-10-31T03:40:29.750Z,41.56
2022-10-31T03:46:11.485Z,41.44
2022-10-31T03:49:00.525Z,41.42
2022-10-31T03:51:52.906Z,41.51
2022-10-31T03:54:45.795Z,41.24
2022-10-31T03:57:39.337Z,41.35
2022-10-31T04:00:27.831Z,41.29
2022-10-31T04:03:18.418Z,41.17
2022-10-31T04:06:09.511Z,41.22
2022-10-31T04:09:00.315Z,41.14
2022-10-31T04:11:51.670Z,41.21
2022-10-31T04:14:42.061Z,41.25
2022-10-31T04:17:32.901Z,41.22
2022-10-31T04:20:21.523Z,41.29
2022-10-31T04:23:18.365Z,41.34
2022-10-31T04:26:07.242Z,41.16
2022-10-31T04:28:55.747Z,41.36
2022-10-31T04:31:45.578Z,41.30
2022-10-31T04:34:34.112Z,41.08
2022-10-31T04:37:22.594Z,41.12
2022-10-31T04:40:12.307Z,41.22
2022-10-31T04:43:01.055Z,41.20
2022-10-31T04:45:49.756Z,40.75
2022-10-31T04:48:39.640Z,40.78
2022-10-31T04:51:28.174Z,41.19
2022-10-31T04:54:16.644Z,40.81
2022-10-31T04:57:05.347Z,40.86
2022-10-31T04:59:53.814Z,40.83
2022-10-31T05:02:46.188Z,40.97
2022-10-31T05:05:36.117Z,40.82
2022-10-31T05:08:24.568Z,40.76
2022-10-31T05:11:13.039Z,40.99
2022-10-31T05:14:01.624Z,40.65
2022-10-31T05:16:51.424Z,40.92
2022-10-31T05:25:54.664Z,40.32
2022-10-31T05:28:52.806Z,40.68
2022-10-31T05:31:45.119Z,40.71
2022-10-31T05:34:50.355Z,40.93
2022-10-31T05:37:55.342Z,40.77
2022-10-31T05:40:45.178Z,40.71
2022-10-31T05:43:33.866Z,40.76
2022-10-31T05:46:22.510Z,40.67
2022-10-31T05:49:11.088Z,40.46
2022-10-31T05:51:59.534Z,40.84
2022-10-31T05:54:47.962Z,40.35
2022-10-31T05:57:37.852Z,40.67
2022-10-31T06:00:27.563Z,40.55
2022-10-31T06:03:15.995Z,40.52
2022-10-31T06:06:04.550Z,40.56
2022-10-31T06:08:53.064Z,40.62
2022-10-31T06:11:41.550Z,40.50
2022-10-31T06:14:33.820Z,41.15
2022-10-31T06:17:22.262Z,40.79
2022-10-31T06:20:11.514Z,41.10
2022-10-31T06:23:00.390Z,40.95
2022-10-31T06:25:51.496Z,41.24
2022-10-31T06:28:40.074Z,41.00
2022-10-31T06:31:29.936Z,41.22
2022-10-31T06:34:18.397Z,40.99
2022-10-31T06:37:08.674Z,40.75
2022-10-31T06:39:57.225Z,40.58
2022-10-31T06:42:45.685Z,40.83
2022-10-31T06:45:34.220Z,40.74
2022-10-31T06:48:24.326Z,40.63
2022-10-31T06:51:13.268Z,40.77
2022-10-31T06:54:01.877Z,40.77
2022-10-31T06:56:50.673Z,40.52
2022-10-31T06:59:39.246Z,40.46
2022-10-31T07:02:27.810Z,40.53
2022-10-31T07:05:17.820Z,40.57
2022-10-31T07:08:08.167Z,40.51
2022-10-31T07:10:58.955Z,40.76
2022-10-31T07:13:48.633Z,40.33
2022-10-31T07:16:37.120Z,40.60
2022-10-31T07:19:25.657Z,40.25
2022-10-31T07:22:15.519Z,40.65
2022-10-31T07:25:04.199Z,40.32
2022-10-31T07:27:52.742Z,40.46
2022-10-31T07:30:41.416Z,40.19
2022-10-31T07:33:29.921Z,38.08
2022-10-31T07:36:18.507Z,37.67
2022-10-31T07:39:08.464Z,36.86
2022-10-31T07:42:06.039Z,37.15
2022-10-31T07:45:13.628Z,37.07
2022-10-31T07:48:03.673Z,37.27
2022-10-31T07:50:53.394Z,37.12
2022-10-31T07:53:56.844Z,37.78
2022-10-31T07:57:02.265Z,38.02
2022-10-31T07:59:51.344Z,37.66
2022-10-31T08:02:39.801Z,37.94
2022-10-31T08:05:28.319Z,38.01
2022-10-31T08:08:17.565Z,38.06
2022-10-31T08:11:09.145Z,37.64
2022-10-31T08:13:59.010Z,37.68
2022-10-31T08:16:47.549Z,37.92
2022-10-31T08:19:35.995Z,37.92
2022-10-31T08:22:24.495Z,38.31
2022-10-31T08:25:12.921Z,38.29
2022-10-31T08:28:04.086Z,38.45
2022-10-31T08:30:53.886Z,38.68
2022-10-31T08:33:42.389Z,38.84
2022-10-31T08:36:31.061Z,38.75
2022-10-31T08:39:19.564Z,38.92
2022-10-31T08:42:08.116Z,38.92
2022-10-31T08:44:56.734Z,39.02
2022-10-31T08:47:46.593Z,39.17
2022-10-31T08:50:37.250Z,39.21
2022-10-31T08:53:25.844Z,39.23
2022-10-31T08:56:14.312Z,39.34
2022-10-31T08:59:03.531Z,39.26
2022-10-31T09:01:52.168Z,39.42
2022-10-31T09:04:42.291Z,39.27
2022-10-31T09:07:30.728Z,39.37
2022-10-31T09:10:19.310Z,39.58
2022-10-31T09:13:09.861Z,39.72
2022-10-31T09:15:59.668Z,39.52
2022-10-31T09:18:48.221Z,39.86
2022-10-31T09:21:38.088Z,39.98
2022-10-31T09:27:09.563Z,39.97
2022-10-31T09:29:58.263Z,39.90
2022-10-31T09:32:45.981Z,39.85
2022-10-31T09:35:35.195Z,39.79
2022-10-31T09:38:25.318Z,39.79
2022-10-31T09:41:22.288Z,38.87
2022-10-31T09:46:54.711Z,38.29
2022-10-31T09:50:02.348Z,38.32
2022-10-31T09:52:56.866Z,38.61
2022-10-31T09:58:29.179Z,37.24
2022-10-31T10:01:30.817Z,37.26
2022-10-31T10:04:35.629Z,37.29
2022-10-31T10:07:35.427Z,37.82
2022-10-31T10:10:33.320Z,37.47
2022-10-31T10:13:33.722Z,38.06
2022-10-31T10:16:34.652Z,37.71
2022-10-31T10:19:36.762Z,37.78
2022-10-31T10:22:32.515Z,37.60
2022-10-31T10:28:20.326Z,38.13
2022-10-31T10:31:13.069Z,38.37
2022-10-31T10:34:04.855Z,37.60
2022-10-31T10:39:48.128Z,37.70
2022-10-31T10:42:55.371Z,37.61
2022-10-31T10:46:06.532Z,37.89
2022-10-31T10:49:03.119Z,37.58
2022-10-31T10:55:11.507Z,38.20
2022-10-31T10:58:03.206Z,37.51
2022-10-31T11:00:52.905Z,37.72
2022-10-31T11:03:41.644Z,38.37
2022-10-31T11:06:31.453Z,38.17
2022-10-31T11:09:20.558Z,37.77
2022-10-31T11:12:11.100Z,38.01
2022-10-31T11:15:01.406Z,38.46
2022-10-31T11:17:52.131Z,38.58
2022-10-31T11:20:40.832Z,38.55
2022-10-31T11:23:31.283Z,37.92
2022-10-31T11:26:22.728Z,38.32
2022-10-31T11:29:17.478Z,38.27
2022-10-31T11:32:06.425Z,38.16
2022-10-31T11:34:56.976Z,38.17
2022-10-31T11:37:46.789Z,38.30
2022-10-31T11:40:36.871Z,38.42
2022-10-31T11:43:25.644Z,38.16
2022-10-31T11:46:16.575Z,37.98
2022-10-31T11:49:05.859Z,37.58
2022-10-31T11:51:56.428Z,37.92
2022-10-31T11:54:48.934Z,38.16
2022-10-31T11:57:47.582Z,37.73
2022-10-31T12:00:41.866Z,37.52
2022-10-31T12:03:39.392Z,38.10
2022-10-31T12:06:31.992Z,37.37
2022-10-31T12:09:23.377Z,37.89
2022-10-31T12:12:34.368Z,37.78
2022-10-31T12:15:34.052Z,37.52
2022-10-31T12:18:33.178Z,37.54
2022-10-31T12:21:30.528Z,37.80
2022-10-31T12:24:31.922Z,37.55
2022-10-31T12:27:27.836Z,37.61
2022-10-31T12:30:21.371Z,37.49
2022-10-31T12:33:22.722Z,37.91
2022-10-31T12:36:22.237Z,37.88
2022-10-31T12:39:27.130Z,37.85
2022-10-31T12:42:24.324Z,37.99
2022-10-31T12:45:31.416Z,37.72
2022-10-31T12:48:57.533Z,37.83
2022-10-31T12:51:56.088Z,38.61
2022-10-31T12:55:00.925Z,38.24
2022-10-31T12:57:53.314Z,37.97
2022-10-31T13:00:44.877Z,38.07
2022-10-31T13:03:37.697Z,37.83
2022-10-31T13:06:30.461Z,38.54
2022-10-31T13:09:23.074Z,38.63
2022-10-31T13:12:13.399Z,38.31
2022-10-31T13:15:06.486Z,38.16
2022-10-31T13:17:58.581Z,38.30
2022-10-31T13:20:52.998Z,37.96
2022-10-31T13:23:50.947Z,38.33
2022-10-31T13:26:44.881Z,38.33
2022-10-31T13:29:35.622Z,38.13
2022-10-31T13:32:24.143Z,37.96
2022-10-31T13:35:19.075Z,38.04
2022-10-31T13:38:22.591Z,38.73
2022-10-31T13:41:21.132Z,38.68
2022-10-31T13:44:16.075Z,38.35
2022-10-31T13:47:04.605Z,38.07
2022-10-31T13:49:53.203Z,38.72
2022-10-31T13:52:41.730Z,38.61
2022-10-31T13:55:41.400Z,38.26
2022-10-31T13:58:31.442Z,38.16
2022-10-31T14:01:23.433Z,38.35
2022-10-31T14:04:23.793Z,38.13
2022-10-31T14:07:14.932Z,38.17
2022-10-31T14:10:06.958Z,37.82
2022-10-31T14:12:56.589Z,37.83
2022-10-31T14:15:53.935Z,38.00
2022-10-31T14:18:47.531Z,37.83
2022-10-31T14:21:41.017Z,38.46
2022-10-31T14:24:39.208Z,39.23
2022-10-31T14:27:47.522Z,38.81
2022-10-31T14:30:36.895Z,38.44
2022-10-31T14:33:27.776Z,38.89
2022-10-31T14:36:23.588Z,39.19
2022-10-31T14:39:17.558Z,39.27
2022-10-31T14:42:17.395Z,39.30
2022-10-31T14:45:18.418Z,39.42
2022-10-31T14:48:14.993Z,39.58
2022-10-31T14:51:06.015Z,40.10
2022-10-31T14:53:57.475Z,40.38
2022-10-31T14:56:57.833Z,40.07
2022-10-31T14:59:50.302Z,40.25
2022-10-31T15:02:43.551Z,41.04
2022-10-31T15:05:32.670Z,41.44
2022-10-31T15:08:36.736Z,40.79
2022-10-31T15:11:27.661Z,40.87
2022-10-31T15:14:24.966Z,40.26
2022-10-31T15:17:14.294Z,40.20
2022-10-31T15:20:02.730Z,40.64
2022-10-31T15:22:52.055Z,40.66
2022-10-31T15:25:40.515Z,41.16
2022-10-31T15:28:32.197Z,40.73
2022-10-31T15:31:20.970Z,40.02
2022-10-31T15:34:17.673Z,40.44
2022-10-31T15:37:06.524Z,40.29
2022-10-31T15:39:55.144Z,40.20
2022-10-31T15:42:44.565Z,40.39
2022-10-31T15:45:34.503Z,40.45
2022-10-31T15:48:25.943Z,40.78
2022-10-31T15:51:14.568Z,41.03
2022-10-31T15:54:03.249Z,41.49
2022-10-31T15:56:51.849Z,41.14
2022-10-31T15:59:41.625Z,41.56
2022-10-31T16:02:31.716Z,41.31
2022-10-31T16:05:21.894Z,41.08
2022-10-31T16:08:27.624Z,41.58
2022-10-31T16:11:27.644Z,41.58
2022-10-31T16:14:25.277Z,41.57
2022-10-31T16:17:15.682Z,41.59
2022-10-31T16:20:07.922Z,41.70
2022-10-31T16:22:58.198Z,41.59
2022-10-31T16:25:47.173Z,42.03
2022-10-31T16:28:39.609Z,41.62
2022-10-31T16:31:31.932Z,41.81
2022-10-31T16:34:26.631Z,42.06
2022-10-31T16:37:19.087Z,41.99
2022-10-31T16:40:08.675Z,41.90
2022-10-31T16:42:59.947Z,41.67
2022-10-31T16:45:51.286Z,41.56
2022-10-31T16:48:39.944Z,41.66
2022-10-31T16:51:28.474Z,41.62
2022-10-31T16:54:18.579Z,41.34
2022-10-31T16:57:08.091Z,41.10
2022-10-31T16:59:56.824Z,41.11
2022-10-31T17:02:45.900Z,40.94
2022-10-31T17:05:34.762Z,40.90
2022-10-31T17:08:24.942Z,40.59
2022-10-31T17:11:17.882Z,40.48
2022-10-31T17:14:06.871Z,40.60
2022-10-31T17:16:58.086Z,40.46
2022-10-31T17:19:46.687Z,40.48
2022-10-31T17:22:35.310Z,40.72
2022-10-31T17:25:26.178Z,40.64
2022-10-31T17:28:16.492Z,40.84
2022-10-31T17:31:05.096Z,40.96
2022-10-31T17:34:01.956Z,41.26
2022-10-31T17:36:52.763Z,41.32
2022-10-31T17:39:41.204Z,41.42
2022-10-31T17:42:29.655Z,41.58
2022-10-31T17:45:19.807Z,41.52
2022-10-31T17:48:10.022Z,41.57
2022-10-31T17:51:01.965Z,41.69
2022-10-31T17:53:50.481Z,41.56
2022-10-31T17:56:38.972Z,41.39
2022-10-31T17:59:29.974Z,41.53
2022-10-31T18:02:19.974Z,41.33
2022-10-31T18:05:09.208Z,41.65
2022-10-31T18:08:02.456Z,41.44
2022-10-31T18:10:52.036Z,41.58
2022-10-31T18:13:40.934Z,41.50
2022-10-31T18:16:29.488Z,41.69
2022-10-31T18:19:19.567Z,41.74
2022-10-31T18:22:08.166Z,41.87
2022-10-31T18:25:01.613Z,41.65
2022-10-31T18:27:50.540Z,41.63
2022-10-31T18:30:41.456Z,41.98
2022-10-31T18:33:30.252Z,41.70
2022-10-31T18:36:20.097Z,41.67
2022-10-31T18:39:08.769Z,41.62
2022-10-31T18:41:57.324Z,41.95
2022-10-31T18:44:45.780Z,42.02
2022-10-31T18:47:34.257Z,41.68
2022-10-31T18:50:23.517Z,41.81
2022-10-31T18:53:13.487Z,41.89
2022-10-31T18:56:02.038Z,41.44
2022-10-31T18:58:51.001Z,41.72
2022-10-31T19:01:39.807Z,41.95
2022-10-31T19:04:28.429Z,41.66
2022-10-31T19:07:16.880Z,41.85
2022-10-31T19:10:07.747Z,41.76
2022-10-31T19:12:56.264Z,41.79
2022-10-31T19:15:44.701Z,41.80
2022-10-31T19:18:33.123Z,42.00
2022-10-31T19:21:21.694Z,41.85
2022-10-31T19:24:11.018Z,41.96
2022-10-31T19:27:01.015Z,41.88
2022-10-31T19:29:52.458Z,41.81
2022-10-31T19:32:40.979Z,41.86
2022-10-31T19:35:29.455Z,41.99
2022-10-31T19:38:17.883Z,42.07
2022-10-31T19:41:08.419Z,42.00
2022-10-31T19:44:00.431Z,42.17
2022-10-31T19:46:53.566Z,42.14
2022-10-31T19:49:42.507Z,42.17
2022-10-31T19:52:30.909Z,41.54
2022-10-31T19:55:19.392Z,40.83
2022-10-31T19:58:07.890Z,40.64
2022-10-31T20:03:48.599Z,41.66
2022-10-31T20:06:38.772Z,41.78
2022-10-31T20:09:27.201Z,42.02
2022-10-31T20:12:18.770Z,42.27
2022-10-31T20:15:08.219Z,42.26
2022-10-31T20:17:58.207Z,42.27
2022-10-31T20:20:46.642Z,42.54
2022-10-31T20:23:35.480Z,42.50
2022-10-31T20:26:24.033Z,42.51
2022-10-31T20:29:16.116Z,42.29
2022-10-31T20:32:04.831Z,42.36
2022-10-31T20:34:54.653Z,42.54
2022-10-31T20:37:43.020Z,42.46
2022-10-31T20:40:32.686Z,42.60
2022-10-31T20:43:21.118Z,42.71
2022-10-31T20:46:12.288Z,42.55
2022-10-31T20:49:00.801Z,42.50
2022-10-31T20:51:50.556Z,42.30
2022-10-31T20:54:39.042Z,42.60
2022-10-31T20:57:27.544Z,42.57
2022-10-31T21:00:16.437Z,42.60
2022-10-31T21:03:05.195Z,42.60
2022-10-31T21:05:55.428Z,42.43
2022-10-31T21:08:45.652Z,42.64
2022-10-31T21:11:34.225Z,42.32
2022-10-31T21:14:22.955Z,42.44
2022-10-31T21:17:11.460Z,42.50
2022-10-31T21:20:00.014Z,42.61
2022-10-31T21:22:48.743Z,42.71
2022-10-31T21:25:41.453Z,42.54
2022-10-31T21:28:29.932Z,42.66
2022-10-31T21:31:20.165Z,42.91
2022-10-31T21:34:09.119Z,42.87
2022-10-31T21:36:57.627Z,42.56
2022-10-31T21:39:50.639Z,42.61
2022-10-31T21:42:40.786Z,42.74
2022-10-31T21:45:29.195Z,42.84
2022-10-31T21:48:17.617Z,42.79
2022-10-31T21:51:09.088Z,42.13
2022-10-31T21:54:19.177Z,42.50
2022-10-31T21:57:07.624Z,42.55
2022-10-31T21:59:57.403Z,42.53
2022-10-31T22:02:45.909Z,42.37
2022-10-31T22:05:35.515Z,42.26
2022-10-31T22:08:23.983Z,42.45
2022-10-31T22:11:14.653Z,42.53
2022-10-31T22:14:03.708Z,42.53
2022-10-31T22:16:53.543Z,42.50
2022-10-31T22:19:42.009Z,42.22
2022-10-31T22:22:30.469Z,42.46
2022-10-31T22:25:19.097Z,42.30
2022-10-31T22:28:08.061Z,42.21
2022-10-31T22:30:56.509Z,40.78
2022-10-31T22:33:46.789Z,41.14
2022-10-31T22:36:35.684Z,41.51
